Cortez, CO

5:41 AM MDT on September 30, 2014 (GMT -0600)
Kelly Place B&B, McElmo Canyon | Change Station
CLOSE
Current Station
Personal Weather Station
Location: Cortez, CO
Elevation: 5522 ft
Nearby Weather Stations

Elev 5522 ft 37.34 °N, 108.79 °W | Updated 58 seconds ago

Partly Cloudy
Partly Cloudy
45.5 °F
Feels Like 46 °F
N
0.0
Wind Variable Wind from ENE
Gusts 0.0 mph

Today
High -- | Low -- °F
--% Chance of Precip.
Yesterday
High -- | Low -- °F
Precip. -- in
7:09 AM 6:59 PM
Waxing Crescent, 36% visible
Pressure 29.96 in
Visibility 10.0 miles
Clouds Clear
Windchill 46 °F
Dew Point 38 °F
Humidity 76%
Rainfall 0.00 in
Snow Depth 0 in , 0 in , 0 in
UV 0 out of 12
Pollen 4.70 out of 12
Air Quality Not available.
Flu Activity Not available.
METAR KCEZ 301053Z AUTO 00000KT 10SM CLR 04/03 A3007 RMK AO2 SLP143 T00440033

More Conditions Fewer Conditions

Pressure 29.96 in
Visibility 10.0 miles
Clouds Clear
Windchill 46 °F
Dew Point 38 °F
Humidity 76%
Rainfall 0.00 in
Snow Depth 0 in , 0 in , 0 in
UV 0 out of 12
Pollen 4.70 out of 12
Air Quality Not available.
Flu Activity Not available.
METAR KCEZ 301053Z AUTO 00000KT 10SM CLR 04/03 A3007 RMK AO2 SLP143 T00440033

More Conditions Fewer Conditions

10-Day Weather Forecast

Almanac

Astronomy

Sep. 30, 2014 Rise Set
Actual Time 7:09 AM MDT 6:59 PM MDT
Civil Twilight 6:43 AM MDT 7:25 PM MDT
Nautical Twilight 6:13 AM MDT 7:55 PM MDT
Astronomical Twilight 5:42 AM MDT 8:26 PM MDT
Moon 1:14 PM MDT 11:38 PM MDT
Length of Visible Light 12h 41m
Length of Day
11h 49m
Tomorrow will be 2m 23s shorter.
Waxing Crescent, 36% of the Moon is Illuminated
Today
Waxing Crescent
Oct 1
First Quarter
Oct 8
Full
Oct 15
Last Quarter
Oct 23
New

Today's Extremes

State Highs State Lows

Community

WunderPhotos

Upload Photos

1,757,618 photos uploaded!

Nearby

Snow Depth

Station Depth Elevation
Copper Mountain 0 in 10500 ft
Overland Reservoir 0 in 9880 ft
Mccoy Park 0 in 9480 ft
Ripple Creek 1 in 10340 ft
Upper San Juan 4 in 10130 ft

Earthquake Activity

City Distance Mag. Time & Date
No recent earthquake activity has been reported nearby.
Minimum magnitude displayed is 2.5.

Coastal Water Temperatures

Place Temperature
No Stations Reporting

Nearby Weather Stations